createdAt,value
2016-12-05T00:00:09.020Z,1021.54
2016-12-05T00:01:09.004Z,1021.52
2016-12-05T00:02:08.989Z,1021.53
2016-12-05T00:03:09.188Z,1021.53
2016-12-05T00:04:08.954Z,1021.49
2016-12-05T00:05:08.941Z,1021.5
2016-12-05T00:06:08.930Z,1021.51
2016-12-05T00:07:08.905Z,1021.44
2016-12-05T00:08:08.888Z,1021.5
2016-12-05T00:09:08.871Z,1021.47
2016-12-05T00:10:08.859Z,1021.47
2016-12-05T00:11:08.837Z,1021.44
2016-12-05T00:12:08.819Z,1021.49
2016-12-05T00:13:08.804Z,1021.45
2016-12-05T00:14:08.786Z,1021.48
2016-12-05T00:15:08.773Z,1021.5
2016-12-05T00:16:08.752Z,1021.49
2016-12-05T00:17:08.737Z,1021.42
2016-12-05T00:18:08.720Z,1021.45
2016-12-05T00:19:08.703Z,1021.46
2016-12-05T00:20:08.686Z,1021.44
2016-12-05T00:21:08.671Z,1021.42
2016-12-05T00:22:08.655Z,1021.44
2016-12-05T00:23:08.636Z,1021.43
2016-12-05T00:24:08.623Z,1021.44
2016-12-05T00:25:08.602Z,1021.44
2016-12-05T00:26:08.584Z,1021.46
2016-12-05T00:27:08.568Z,1021.44
2016-12-05T00:28:08.553Z,1021.4
2016-12-05T00:29:08.535Z,1021.45
2016-12-05T00:30:08.518Z,1021.46
2016-12-05T00:31:08.501Z,1021.44
2016-12-05T00:32:08.485Z,1021.44
2016-12-05T00:33:08.466Z,1021.43
2016-12-05T00:34:08.451Z,1021.43
2016-12-05T00:35:08.434Z,1021.43
2016-12-05T00:36:08.416Z,1021.39
2016-12-05T00:37:08.399Z,1021.35
2016-12-05T00:38:08.384Z,1021.38
2016-12-05T00:39:08.367Z,1021.41
2016-12-05T00:40:08.351Z,1021.36
2016-12-05T00:41:08.333Z,1021.38
2016-12-05T00:42:08.369Z,1021.37
2016-12-05T00:43:08.298Z,1021.38
2016-12-05T00:44:08.279Z,1021.36
2016-12-05T00:45:08.268Z,1021.38
2016-12-05T00:46:08.252Z,1021.35
2016-12-05T00:47:08.232Z,1021.33
2016-12-05T00:48:08.214Z,1021.33
2016-12-05T00:49:08.201Z,1021.31
2016-12-05T00:50:08.180Z,1021.33
2016-12-05T00:51:08.163Z,1021.34
2016-12-05T00:52:08.149Z,1021.32
2016-12-05T00:53:08.132Z,1021.32
2016-12-05T00:54:08.113Z,1021.31
2016-12-05T00:55:08.094Z,1021.33
2016-12-05T00:56:08.076Z,1021.34
2016-12-05T00:57:08.061Z,1021.32
2016-12-05T00:58:08.044Z,1021.3
2016-12-05T00:59:08.029Z,1021.35
2016-12-05T01:00:08.009Z,1021.29
2016-12-05T01:01:07.993Z,1021.32
2016-12-05T01:02:07.975Z,1021.32
2016-12-05T01:03:07.962Z,1021.32
2016-12-05T01:04:07.943Z,1021.31
2016-12-05T01:05:07.925Z,1021.35
2016-12-05T01:06:07.906Z,1021.31
2016-12-05T01:07:07.889Z,1021.33
2016-12-05T01:08:07.877Z,1021.32
2016-12-05T01:09:07.856Z,1021.33
2016-12-05T01:10:07.840Z,1021.31
2016-12-05T01:11:07.822Z,1021.3
2016-12-05T01:12:07.805Z,1021.28
2016-12-05T01:13:07.791Z,1021.25
2016-12-05T01:14:07.771Z,1021.27
2016-12-05T01:15:07.754Z,1021.25
2016-12-05T01:16:07.736Z,1021.23
2016-12-05T01:17:07.743Z,1021.24
2016-12-05T01:18:07.706Z,1021.25
2016-12-05T01:19:07.687Z,1021.22
2016-12-05T01:20:07.671Z,1021.18
2016-12-05T01:21:07.650Z,1021.21
2016-12-05T01:22:07.639Z,1021.19
2016-12-05T01:23:07.618Z,1021.2
2016-12-05T01:24:07.599Z,1021.14
2016-12-05T01:25:07.584Z,1021.18
2016-12-05T01:26:07.566Z,1021.19
2016-12-05T01:27:07.552Z,1021.18
2016-12-05T01:28:07.576Z,1021.22
2016-12-05T01:29:07.515Z,1021.17
2016-12-05T01:30:07.498Z,1021.2
2016-12-05T01:31:07.520Z,1021.18
2016-12-05T01:32:07.465Z,1021.23
2016-12-05T01:33:07.446Z,1021.19
2016-12-05T01:34:07.429Z,1021.18
2016-12-05T01:35:07.412Z,1021.16
2016-12-05T01:36:07.399Z,1021.18
2016-12-05T01:37:07.378Z,1021.17
2016-12-05T01:38:07.360Z,1021.17
2016-12-05T01:39:07.343Z,1021.17
2016-12-05T01:40:07.326Z,1021.18
2016-12-05T01:41:07.310Z,1021.19
2016-12-05T01:42:07.292Z,1021.16
2016-12-05T01:43:07.274Z,1021.18
2016-12-05T01:44:07.257Z,1021.17
2016-12-05T01:45:07.246Z,1021.2
2016-12-05T01:46:07.223Z,1021.2
2016-12-05T01:47:07.208Z,1021.21
2016-12-05T01:48:07.191Z,1021.23
2016-12-05T01:49:07.173Z,1021.25
2016-12-05T01:50:07.156Z,1021.22
2016-12-05T01:51:07.138Z,1021.22
2016-12-05T01:52:07.122Z,1021.21
2016-12-05T01:53:07.105Z,1021.21
2016-12-05T01:54:07.086Z,1021.18
2016-12-05T01:55:07.072Z,1021.18
2016-12-05T01:56:07.053Z,1021.21
2016-12-05T01:57:07.034Z,1021.19
2016-12-05T01:58:07.017Z,1021.15
2016-12-05T01:59:07.001Z,1021.17
2016-12-05T02:00:06.984Z,1021.15
2016-12-05T02:01:06.966Z,1021.15
2016-12-05T02:02:06.952Z,1021.14
2016-12-05T02:03:06.935Z,1021.17
2016-12-05T02:04:06.917Z,1021.17
2016-12-05T02:05:06.899Z,1021.18
2016-12-05T02:06:06.881Z,1021.16
2016-12-05T02:07:06.868Z,1021.1
2016-12-05T02:08:06.847Z,1021.1
2016-12-05T02:09:06.834Z,1021.06
2016-12-05T02:10:06.812Z,1021.07
2016-12-05T02:11:06.799Z,1021.07
2016-12-05T02:12:06.778Z,1021.1
2016-12-05T02:13:06.761Z,1021.1
2016-12-05T02:14:06.744Z,1021.09
2016-12-05T02:15:06.727Z,1021.04
2016-12-05T02:16:06.955Z,1021.1
2016-12-05T02:17:06.694Z,1021.04
2016-12-05T02:18:06.679Z,1021.07
2016-12-05T02:19:06.658Z,1021.05
2016-12-05T02:20:06.641Z,1021.06
2016-12-05T02:21:06.624Z,1021.01
2016-12-05T02:22:06.606Z,1021
2016-12-05T02:23:06.587Z,1021
2016-12-05T02:24:06.573Z,1021
2016-12-05T02:25:06.555Z,1020.99
2016-12-05T02:26:06.537Z,1020.98
2016-12-05T02:27:06.518Z,1020.96
2016-12-05T02:28:06.505Z,1020.99
2016-12-05T02:29:06.916Z,1020.96
2016-12-05T02:30:06.470Z,1020.96
2016-12-05T02:31:06.450Z,1020.97
2016-12-05T02:32:06.432Z,1020.97
2016-12-05T02:33:06.415Z,1021
2016-12-05T02:34:06.398Z,1020.96
2016-12-05T02:35:06.431Z,1021.03
2016-12-05T02:36:06.364Z,1020.99
2016-12-05T02:37:06.347Z,1020.96
2016-12-05T02:38:06.329Z,1020.99
2016-12-05T02:39:06.312Z,1020.94
2016-12-05T02:41:06.278Z,1020.94
2016-12-05T02:42:06.260Z,1020.93
2016-12-05T02:43:06.244Z,1020.95
2016-12-05T02:44:06.226Z,1020.95
2016-12-05T02:45:06.207Z,1020.91
2016-12-05T02:46:06.190Z,1020.91
2016-12-05T02:47:06.179Z,1020.94
2016-12-05T02:48:06.156Z,1020.88
2016-12-05T02:49:06.141Z,1020.95
2016-12-05T02:50:06.121Z,1020.94
2016-12-05T02:51:06.104Z,1020.92
2016-12-05T02:52:06.089Z,1020.9
2016-12-05T02:53:06.070Z,1020.9
2016-12-05T02:54:06.057Z,1020.87
2016-12-05T02:55:06.035Z,1020.86
2016-12-05T02:56:06.018Z,1020.83
2016-12-05T02:57:06.001Z,1020.88
2016-12-05T02:58:05.984Z,1020.88
2016-12-05T02:59:05.967Z,1020.86
2016-12-05T03:00:05.948Z,1020.85
2016-12-05T03:01:05.930Z,1020.92
2016-12-05T03:02:05.967Z,1020.87
2016-12-05T03:03:05.896Z,1020.93
2016-12-05T03:04:05.879Z,1020.87
2016-12-05T03:05:05.864Z,1020.9
2016-12-05T03:06:05.845Z,1020.87
2016-12-05T03:07:05.827Z,1020.93
2016-12-05T03:08:05.810Z,1020.91
2016-12-05T03:09:05.795Z,1020.9
2016-12-05T03:10:05.776Z,1020.88
2016-12-05T03:11:05.758Z,1020.85
2016-12-05T03:12:05.739Z,1020.9
2016-12-05T03:13:05.722Z,1020.92
2016-12-05T03:14:05.705Z,1020.9
2016-12-05T03:15:05.688Z,1020.97
2016-12-05T03:16:05.669Z,1020.91
2016-12-05T03:17:05.653Z,1020.93
2016-12-05T03:18:05.640Z,1020.96
2016-12-05T03:19:05.619Z,1020.93
2016-12-05T03:20:05.600Z,1020.96
2016-12-05T03:21:05.583Z,1020.96
2016-12-05T03:22:05.565Z,1020.94
2016-12-05T03:23:05.550Z,1020.96
2016-12-05T03:24:05.531Z,1020.93
2016-12-05T03:25:05.520Z,1020.94
2016-12-05T03:26:05.497Z,1020.91
2016-12-05T03:27:05.479Z,1020.92
2016-12-05T03:28:05.462Z,1020.94
2016-12-05T03:29:05.443Z,1020.89
2016-12-05T03:30:05.430Z,1020.91
2016-12-05T03:31:05.409Z,1020.81
2016-12-05T03:32:05.393Z,1020.82
2016-12-05T03:33:05.374Z,1020.83
2016-12-05T03:34:05.359Z,1020.84
2016-12-05T03:35:05.340Z,1020.82
2016-12-05T03:36:05.323Z,1020.82
2016-12-05T03:37:05.305Z,1020.81
2016-12-05T03:38:05.288Z,1020.79
2016-12-05T03:39:05.271Z,1020.77
2016-12-05T03:40:05.254Z,1020.78
2016-12-05T03:41:05.251Z,1020.78
2016-12-05T03:42:05.220Z,1020.8
2016-12-05T03:43:05.205Z,1020.8
2016-12-05T03:44:05.185Z,1020.79
2016-12-05T03:45:05.168Z,1020.81
2016-12-05T03:46:05.151Z,1020.77
2016-12-05T03:47:05.132Z,1020.7
2016-12-05T03:48:05.115Z,1020.69
2016-12-05T03:49:05.101Z,1020.71
2016-12-05T03:50:05.080Z,1020.74
2016-12-05T03:51:05.063Z,1020.7
2016-12-05T03:52:05.046Z,1020.64
2016-12-05T03:53:05.029Z,1020.67
2016-12-05T03:54:05.013Z,1020.6
2016-12-05T03:55:04.994Z,1020.61
2016-12-05T03:56:04.977Z,1020.6
2016-12-05T03:57:04.956Z,1020.62
2016-12-05T03:58:04.940Z,1020.58
2016-12-05T03:59:04.923Z,1020.58
2016-12-05T04:00:04.908Z,1020.55
2016-12-05T04:01:04.891Z,1020.54
2016-12-05T04:02:04.872Z,1020.55
2016-12-05T04:03:04.859Z,1020.53
2016-12-05T04:04:04.837Z,1020.49
2016-12-05T04:05:04.827Z,1020.5
2016-12-05T04:06:05.038Z,1020.54
2016-12-05T04:07:04.786Z,1020.55
2016-12-05T04:08:04.768Z,1020.51
2016-12-05T04:09:04.749Z,1020.51
2016-12-05T04:10:04.736Z,1020.49
2016-12-05T04:11:04.717Z,1020.47
2016-12-05T04:12:04.697Z,1020.42
2016-12-05T04:13:04.680Z,1020.47
2016-12-05T04:14:04.663Z,1020.45
2016-12-05T04:15:04.651Z,1020.44
2016-12-05T04:16:04.629Z,1020.46
2016-12-05T04:17:04.611Z,1020.44
2016-12-05T04:18:04.594Z,1020.41
2016-12-05T04:19:04.577Z,1020.42
2016-12-05T04:20:04.565Z,1020.4
2016-12-05T04:21:04.542Z,1020.36
2016-12-05T04:22:04.525Z,1020.36
2016-12-05T04:23:04.506Z,1020.32
2016-12-05T04:24:04.489Z,1020.33
2016-12-05T04:25:04.473Z,1020.34
2016-12-05T04:26:04.454Z,1020.29
2016-12-05T04:27:04.436Z,1020.32
2016-12-05T04:28:04.419Z,1020.3
2016-12-05T04:29:04.402Z,1020.3
2016-12-05T04:30:04.384Z,1020.28
2016-12-05T04:31:04.368Z,1020.26
2016-12-05T04:32:04.354Z,1020.26
2016-12-05T04:33:04.333Z,1020.29
2016-12-05T04:34:04.314Z,1020.26
2016-12-05T04:35:04.296Z,1020.29
2016-12-05T04:36:04.279Z,1020.35
2016-12-05T04:37:04.262Z,1020.33
2016-12-05T04:38:04.245Z,1020.3
2016-12-05T04:39:04.229Z,1020.31
2016-12-05T04:40:04.224Z,1020.31
2016-12-05T04:41:04.193Z,1020.33
2016-12-05T04:42:04.176Z,1020.29
2016-12-05T04:43:04.159Z,1020.32
2016-12-05T04:44:04.144Z,1020.34
2016-12-05T04:45:04.124Z,1020.34
2016-12-05T04:46:04.105Z,1020.38
2016-12-05T04:47:04.088Z,1020.38
2016-12-05T04:48:04.070Z,1020.37
2016-12-05T04:49:04.055Z,1020.4
2016-12-05T04:50:04.036Z,1020.38
2016-12-05T04:51:04.018Z,1020.42
2016-12-05T04:52:04.002Z,1020.4
2016-12-05T04:53:03.984Z,1020.39
2016-12-05T04:54:03.968Z,1020.41
2016-12-05T04:55:03.950Z,1020.38
2016-12-05T04:56:03.934Z,1020.39
2016-12-05T04:57:03.913Z,1020.41
2016-12-05T04:58:03.897Z,1020.43
2016-12-05T04:59:03.879Z,1020.37
2016-12-05T05:00:03.862Z,1020.44
2016-12-05T05:01:03.845Z,1020.42
2016-12-05T05:02:03.827Z,1020.44
2016-12-05T05:03:03.810Z,1020.41
2016-12-05T05:04:03.793Z,1020.38
2016-12-05T05:05:03.777Z,1020.42
2016-12-05T05:06:03.759Z,1020.39
2016-12-05T05:07:03.740Z,1020.37
2016-12-05T05:08:03.726Z,1020.43
2016-12-05T05:09:03.705Z,1020.41
2016-12-05T05:10:03.691Z,1020.41
2016-12-05T05:11:03.671Z,1020.41
2016-12-05T05:12:03.653Z,1020.43
2016-12-05T05:13:03.639Z,1020.47
2016-12-05T05:14:03.621Z,1020.45
2016-12-05T05:15:03.606Z,1020.47
2016-12-05T05:16:03.585Z,1020.51
2016-12-05T05:17:03.568Z,1020.55
2016-12-05T05:18:03.548Z,1020.53
2016-12-05T05:19:03.533Z,1020.5
2016-12-05T05:20:03.516Z,1020.51
2016-12-05T05:21:03.499Z,1020.53
2016-12-05T05:22:03.480Z,1020.52
2016-12-05T05:23:03.461Z,1020.5
2016-12-05T05:24:03.445Z,1020.5
2016-12-05T05:25:03.428Z,1020.48
2016-12-05T05:26:03.413Z,1020.46
2016-12-05T05:27:03.394Z,1020.47
2016-12-05T05:28:03.377Z,1020.51
2016-12-05T05:29:03.362Z,1020.52
2016-12-05T05:30:03.345Z,1020.52
2016-12-05T05:31:03.325Z,1020.5
2016-12-05T05:32:03.308Z,1020.55
2016-12-05T05:33:03.291Z,1020.54
2016-12-05T05:34:03.277Z,1020.51
2016-12-05T05:35:03.256Z,1020.52
2016-12-05T05:36:03.239Z,1020.52
2016-12-05T05:37:03.223Z,1020.52
2016-12-05T05:38:03.205Z,1020.56
2016-12-05T05:39:03.189Z,1020.52
2016-12-05T05:40:03.170Z,1020.48
2016-12-05T05:41:03.153Z,1020.53
2016-12-05T05:42:03.135Z,1020.45
2016-12-05T05:43:03.123Z,1020.43
2016-12-05T05:44:03.101Z,1020.42
2016-12-05T05:45:03.084Z,1020.38
2016-12-05T05:46:03.069Z,1020.43
2016-12-05T05:47:03.050Z,1020.45
2016-12-05T05:48:03.032Z,1020.43
2016-12-05T05:49:03.015Z,1020.43
2016-12-05T05:50:03.001Z,1020.42
2016-12-05T05:51:02.983Z,1020.4
2016-12-05T05:52:02.967Z,1020.39
2016-12-05T05:53:02.947Z,1020.39
2016-12-05T05:54:02.932Z,1020.38
2016-12-05T05:55:02.912Z,1020.38
2016-12-05T05:56:02.895Z,1020.38
2016-12-05T05:57:02.884Z,1020.38
2016-12-05T05:58:02.861Z,1020.36
2016-12-05T05:59:02.843Z,1020.43
2016-12-05T06:00:02.830Z,1020.41
2016-12-05T06:01:02.811Z,1020.4
2016-12-05T06:02:02.799Z,1020.39
2016-12-05T06:03:02.777Z,1020.38
2016-12-05T06:04:02.760Z,1020.39
2016-12-05T06:05:02.742Z,1020.39
2016-12-05T06:06:02.725Z,1020.42
2016-12-05T06:07:02.712Z,1020.43
2016-12-05T06:08:02.691Z,1020.45
2016-12-05T06:09:02.674Z,1020.43
2016-12-05T06:10:02.659Z,1020.47
2016-12-05T06:11:02.642Z,1020.44
2016-12-05T06:12:02.624Z,1020.42
2016-12-05T06:13:02.610Z,1020.42
2016-12-05T06:14:02.590Z,1020.44
2016-12-05T06:15:02.573Z,1020.44
2016-12-05T06:16:02.562Z,1020.43
2016-12-05T06:17:02.538Z,1020.44
2016-12-05T06:18:02.521Z,1020.46
2016-12-05T06:19:02.507Z,1020.49
2016-12-05T06:20:02.486Z,1020.44
2016-12-05T06:21:02.474Z,1020.42
2016-12-05T06:22:02.456Z,1020.43
2016-12-05T06:23:02.437Z,1020.43
2016-12-05T06:24:02.420Z,1020.45
2016-12-05T06:25:02.402Z,1020.46
2016-12-05T06:26:02.389Z,1020.47
2016-12-05T06:27:02.370Z,1020.45
2016-12-05T06:28:02.354Z,1020.48
2016-12-05T06:29:02.335Z,1020.41
2016-12-05T06:30:02.318Z,1020.48
2016-12-05T06:31:02.301Z,1020.43
2016-12-05T06:32:02.284Z,1020.45
2016-12-05T06:33:02.269Z,1020.43
2016-12-05T06:34:02.253Z,1020.45
2016-12-05T06:35:02.237Z,1020.51
2016-12-05T06:36:02.217Z,1020.47
2016-12-05T06:37:02.202Z,1020.5
2016-12-05T06:38:02.189Z,1020.5
2016-12-05T06:39:02.167Z,1020.51
2016-12-05T06:40:02.150Z,1020.52
2016-12-05T06:41:02.138Z,1020.53
2016-12-05T06:42:02.116Z,1020.52
2016-12-05T06:43:02.100Z,1020.56
2016-12-05T06:44:02.082Z,1020.56
2016-12-05T06:45:02.068Z,1020.59
2016-12-05T06:46:02.053Z,1020.56
2016-12-05T06:47:02.034Z,1020.54
2016-12-05T06:48:02.018Z,1020.53
2016-12-05T06:49:02.001Z,1020.57
2016-12-05T06:50:01.988Z,1020.56
2016-12-05T06:51:01.969Z,1020.58
2016-12-05T06:52:01.952Z,1020.58
2016-12-05T06:53:01.936Z,1020.59
2016-12-05T06:54:01.917Z,1020.61
2016-12-05T06:55:01.901Z,1020.61
2016-12-05T06:56:01.885Z,1020.6
2016-12-05T06:57:01.868Z,1020.64
2016-12-05T06:58:02.079Z,1020.6
2016-12-05T06:59:01.839Z,1020.61
2016-12-05T07:00:01.816Z,1020.62
2016-12-05T07:01:01.801Z,1020.62
2016-12-05T07:02:01.786Z,1020.62
2016-12-05T07:03:01.768Z,1020.64
2016-12-05T07:04:01.968Z,1020.61
2016-12-05T07:05:01.735Z,1020.66
2016-12-05T07:06:01.720Z,1020.64
2016-12-05T07:07:01.703Z,1020.67
2016-12-05T07:08:01.689Z,1020.61
2016-12-05T07:09:01.669Z,1020.67
2016-12-05T07:10:01.652Z,1020.61
2016-12-05T07:11:01.635Z,1020.61
2016-12-05T07:12:01.618Z,1020.63
2016-12-05T07:13:01.604Z,1020.63
2016-12-05T07:14:01.585Z,1020.61
2016-12-05T07:15:01.569Z,1020.62
2016-12-05T07:16:01.550Z,1020.63
2016-12-05T07:17:01.536Z,1020.62
2016-12-05T07:18:01.518Z,1020.64
2016-12-05T07:19:01.501Z,1020.62
2016-12-05T07:20:01.485Z,1020.61
2016-12-05T07:21:01.468Z,1020.62
2016-12-05T07:22:01.451Z,1020.63
2016-12-05T07:23:01.435Z,1020.65
2016-12-05T07:24:01.418Z,1020.66
2016-12-05T07:25:01.403Z,1020.66
2016-12-05T07:26:01.385Z,1020.64
2016-12-05T07:27:01.384Z,1020.62
2016-12-05T07:28:01.350Z,1020.68
2016-12-05T07:29:01.335Z,1020.65
2016-12-05T07:30:01.321Z,1020.6
2016-12-05T07:31:01.303Z,1020.6
2016-12-05T07:32:01.286Z,1020.59
2016-12-05T07:33:01.268Z,1020.62
2016-12-05T07:34:01.251Z,1020.6
2016-12-05T07:35:01.236Z,1020.56
2016-12-05T07:36:01.218Z,1020.59
2016-12-05T07:37:01.201Z,1020.56
2016-12-05T07:38:01.186Z,1020.57
2016-12-05T07:39:01.169Z,1020.58
2016-12-05T07:40:01.156Z,1020.57
2016-12-05T07:41:01.137Z,1020.61
2016-12-05T07:42:01.119Z,1020.63
2016-12-05T07:43:01.104Z,1020.59
2016-12-05T07:44:01.091Z,1020.63
2016-12-05T07:45:01.069Z,1020.61
2016-12-05T07:46:01.054Z,1020.68
2016-12-05T07:47:01.037Z,1020.61
2016-12-05T07:48:01.020Z,1020.61
2016-12-05T07:49:01.005Z,1020.64
2016-12-05T07:50:00.987Z,1020.63
2016-12-05T07:51:00.974Z,1020.67
2016-12-05T07:52:00.955Z,1020.68
2016-12-05T07:53:00.937Z,1020.66
2016-12-05T07:54:00.927Z,1020.63
2016-12-05T07:55:00.906Z,1020.69
2016-12-05T07:56:00.888Z,1020.68
2016-12-05T07:57:00.873Z,1020.67
2016-12-05T07:58:00.857Z,1020.72
2016-12-05T07:59:00.840Z,1020.71
2016-12-05T08:00:00.826Z,1020.74
2016-12-05T08:01:00.808Z,1020.69
2016-12-05T08:02:00.794Z,1020.72
2016-12-05T08:03:00.784Z,1020.7
2016-12-05T08:04:00.761Z,1020.74
2016-12-05T08:05:00.739Z,1020.75
2016-12-05T08:06:00.723Z,1020.75
2016-12-05T08:07:00.708Z,1020.73
2016-12-05T08:08:00.691Z,1020.74
2016-12-05T08:09:00.677Z,1020.73
2016-12-05T08:10:00.662Z,1020.76
2016-12-05T08:11:00.643Z,1020.75
2016-12-05T08:12:00.625Z,1020.79
2016-12-05T08:13:00.611Z,1020.77
2016-12-05T08:14:00.593Z,1020.76
2016-12-05T08:15:00.576Z,1020.8
2016-12-05T08:16:00.561Z,1020.79
2016-12-05T08:17:00.544Z,1020.78
2016-12-05T08:18:00.527Z,1020.84
2016-12-05T08:19:00.511Z,1020.79
2016-12-05T08:20:00.497Z,1020.83
2016-12-05T08:21:00.479Z,1020.82
2016-12-05T08:22:00.461Z,1020.83
2016-12-05T08:23:00.446Z,1020.84
2016-12-05T08:24:00.429Z,1020.81
2016-12-05T08:25:00.414Z,1020.84
2016-12-05T08:26:00.398Z,1020.83
2016-12-05T08:27:00.381Z,1020.83
2016-12-05T08:28:00.367Z,1020.8
2016-12-05T08:29:00.349Z,1020.86
2016-12-05T08:30:00.334Z,1020.8
2016-12-05T08:31:00.315Z,1020.78
2016-12-05T08:32:00.301Z,1020.83
2016-12-05T08:33:00.286Z,1020.77
2016-12-05T08:34:00.270Z,1020.83
2016-12-05T08:35:00.254Z,1020.83
2016-12-05T08:36:00.234Z,1020.8
2016-12-05T08:37:00.651Z,1020.82
2016-12-05T08:38:00.202Z,1020.81
2016-12-05T08:39:00.186Z,1020.85
2016-12-05T08:40:00.597Z,1020.86
2016-12-05T08:41:00.161Z,1020.88
2016-12-05T08:42:00.137Z,1020.92
2016-12-05T08:43:00.120Z,1020.9
2016-12-05T08:44:00.103Z,1020.92
2016-12-05T08:45:00.091Z,1020.89
2016-12-05T08:46:00.070Z,1020.92
2016-12-05T08:47:00.055Z,1020.85
2016-12-05T08:48:00.039Z,1020.86
2016-12-05T08:49:00.023Z,1020.9
2016-12-05T08:50:00.007Z,1020.88
2016-12-05T08:50:59.990Z,1020.9
2016-12-05T08:51:59.973Z,1020.85
2016-12-05T08:52:59.960Z,1020.86
2016-12-05T08:53:59.939Z,1020.87
2016-12-05T08:54:59.926Z,1020.9
2016-12-05T08:55:59.909Z,1020.85
2016-12-05T08:56:59.892Z,1020.88
2016-12-05T08:57:59.876Z,1020.9
2016-12-05T08:58:59.861Z,1020.93
2016-12-05T08:59:59.843Z,1020.91
2016-12-05T09:00:59.826Z,1020.93
2016-12-05T09:01:59.808Z,1020.96
2016-12-05T09:02:59.793Z,1020.92
2016-12-05T09:03:59.778Z,1020.96
2016-12-05T09:04:59.762Z,1020.95
2016-12-05T09:05:59.746Z,1020.95
2016-12-05T09:06:59.728Z,1020.97
2016-12-05T09:07:59.712Z,1020.89
2016-12-05T09:08:59.696Z,1020.9
2016-12-05T09:09:59.682Z,1020.91
2016-12-05T09:10:59.664Z,1020.85
2016-12-05T09:11:59.647Z,1020.83
2016-12-05T09:12:59.634Z,1020.84
2016-12-05T09:13:59.616Z,1020.84
2016-12-05T09:14:59.599Z,1020.86
2016-12-05T09:15:59.582Z,1020.86
2016-12-05T09:16:59.623Z,1020.85
2016-12-05T09:17:59.551Z,1020.86
2016-12-05T09:18:59.534Z,1020.88
2016-12-05T09:19:59.517Z,1020.88
2016-12-05T09:20:59.506Z,1020.86
2016-12-05T09:21:59.486Z,1020.93
2016-12-05T09:22:59.469Z,1020.93
2016-12-05T09:23:59.451Z,1020.88
2016-12-05T09:24:59.439Z,1020.89
2016-12-05T09:25:59.421Z,1020.93
2016-12-05T09:26:59.404Z,1020.92
2016-12-05T09:27:59.391Z,1020.92
2016-12-05T09:28:59.377Z,1020.94
2016-12-05T09:29:59.354Z,1020.95
2016-12-05T09:30:59.339Z,1020.92
2016-12-05T09:31:59.330Z,1020.94
2016-12-05T09:32:59.307Z,1020.96
2016-12-05T09:33:59.289Z,1020.94
2016-12-05T09:34:59.274Z,1020.94
2016-12-05T09:35:59.259Z,1020.96
2016-12-05T09:36:59.247Z,1020.95
2016-12-05T09:37:59.234Z,1020.98
2016-12-05T09:38:59.212Z,1020.96
2016-12-05T09:39:59.201Z,1020.96
2016-12-05T09:40:59.177Z,1021
2016-12-05T09:41:59.164Z,1021.01
2016-12-05T09:42:59.145Z,1020.98
2016-12-05T09:43:59.130Z,1020.97
2016-12-05T09:44:59.113Z,1020.95
2016-12-05T09:45:59.099Z,1020.98
2016-12-05T09:46:59.085Z,1020.96
2016-12-05T09:47:59.065Z,1020.98
2016-12-05T09:48:59.048Z,1020.91
2016-12-05T09:49:59.033Z,1020.93
2016-12-05T09:50:59.018Z,1020.94
2016-12-05T09:51:59.001Z,1020.92
2016-12-05T09:52:58.987Z,1020.97
2016-12-05T09:53:58.975Z,1020.95
2016-12-05T09:54:58.950Z,1020.95
2016-12-05T09:55:58.943Z,1020.88
2016-12-05T09:56:58.923Z,1020.91
2016-12-05T09:57:58.903Z,1020.99
2016-12-05T09:58:58.888Z,1020.95
2016-12-05T09:59:58.875Z,1020.9
2016-12-05T10:00:58.856Z,1020.98
2016-12-05T10:01:58.840Z,1020.93
2016-12-05T10:02:58.827Z,1020.94
2016-12-05T10:03:58.808Z,1020.94
2016-12-05T10:04:58.791Z,1020.9
2016-12-05T10:05:58.776Z,1020.84
2016-12-05T10:06:58.757Z,1020.87
2016-12-05T10:07:58.743Z,1020.86
2016-12-05T10:08:58.728Z,1020.83
2016-12-05T10:09:58.711Z,1020.81
2016-12-05T10:10:58.697Z,1020.79
2016-12-05T10:11:58.680Z,1020.81
2016-12-05T10:12:58.677Z,1020.86
2016-12-05T10:13:58.646Z,1020.81
2016-12-05T10:14:58.631Z,1020.83
2016-12-05T10:15:58.615Z,1020.84
2016-12-05T10:16:58.601Z,1020.83
2016-12-05T10:17:58.580Z,1020.82
2016-12-05T10:18:58.566Z,1020.83
2016-12-05T10:19:58.551Z,1020.83
2016-12-05T10:20:58.534Z,1020.81
2016-12-05T10:21:58.519Z,1020.82
2016-12-05T10:22:58.502Z,1020.86
2016-12-05T10:23:58.486Z,1020.84
2016-12-05T10:24:58.467Z,1020.85
2016-12-05T10:25:58.454Z,1020.84
2016-12-05T10:26:58.438Z,1020.85
2016-12-05T10:27:58.421Z,1020.85
2016-12-05T10:28:58.407Z,1020.88
2016-12-05T10:29:58.389Z,1020.84
2016-12-05T10:30:58.372Z,1020.8
2016-12-05T10:31:58.357Z,1020.78
2016-12-05T10:32:58.343Z,1020.81
2016-12-05T10:33:58.324Z,1020.82
2016-12-05T10:34:58.309Z,1020.77
2016-12-05T10:35:58.292Z,1020.81
2016-12-05T10:36:58.277Z,1020.76
2016-12-05T10:37:58.261Z,1020.76
2016-12-05T10:38:58.246Z,1020.75
2016-12-05T10:39:58.229Z,1020.78
2016-12-05T10:40:58.212Z,1020.73
2016-12-05T10:41:58.197Z,1020.74
2016-12-05T10:42:58.179Z,1020.71
2016-12-05T10:43:58.166Z,1020.75
2016-12-05T10:44:58.151Z,1020.75
2016-12-05T10:45:58.136Z,1020.76
2016-12-05T10:46:58.123Z,1020.75
2016-12-05T10:47:58.102Z,1020.76
2016-12-05T10:48:58.084Z,1020.77
2016-12-05T10:49:58.076Z,1020.78
2016-12-05T10:50:58.054Z,1020.75
2016-12-05T10:51:58.035Z,1020.76
2016-12-05T10:52:58.021Z,1020.74
2016-12-05T10:53:58.002Z,1020.7
2016-12-05T10:54:57.987Z,1020.7
2016-12-05T10:55:57.971Z,1020.72
2016-12-05T10:56:57.958Z,1020.69
2016-12-05T10:57:57.940Z,1020.7
2016-12-05T10:58:57.922Z,1020.68
2016-12-05T10:59:57.905Z,1020.7
2016-12-05T11:00:57.890Z,1020.7
2016-12-05T11:01:57.873Z,1020.63
2016-12-05T11:02:57.861Z,1020.69
2016-12-05T11:03:57.838Z,1020.67
2016-12-05T11:04:57.837Z,1020.62
2016-12-05T11:05:57.819Z,1020.64
2016-12-05T11:06:57.793Z,1020.66
2016-12-05T11:07:57.781Z,1020.63
2016-12-05T11:08:57.762Z,1020.64
2016-12-05T11:09:57.747Z,1020.59
2016-12-05T11:10:57.728Z,1020.59
2016-12-05T11:11:57.719Z,1020.6
2016-12-05T11:12:57.695Z,1020.62
2016-12-05T11:13:57.682Z,1020.6
2016-12-05T11:14:57.673Z,1020.61
2016-12-05T11:15:57.646Z,1020.6
2016-12-05T11:16:57.634Z,1020.59
2016-12-05T11:17:57.617Z,1020.57
2016-12-05T11:18:57.601Z,1020.61
2016-12-05T11:19:57.585Z,1020.58
2016-12-05T11:20:57.570Z,1020.61
2016-12-05T11:21:57.553Z,1020.59
2016-12-05T11:22:57.538Z,1020.61
2016-12-05T11:23:57.522Z,1020.6
2016-12-05T11:24:57.505Z,1020.6
2016-12-05T11:25:57.790Z,1020.55
2016-12-05T11:26:57.473Z,1020.55
2016-12-05T11:27:57.458Z,1020.5
2016-12-05T11:28:57.443Z,1020.55
2016-12-05T11:29:57.425Z,1020.55
2016-12-05T11:30:57.408Z,1020.54
2016-12-05T11:31:57.395Z,1020.54
2016-12-05T11:32:57.378Z,1020.51
2016-12-05T11:33:57.360Z,1020.58
2016-12-05T11:34:57.351Z,1020.58
2016-12-05T11:35:57.334Z,1020.56
2016-12-05T11:36:57.314Z,1020.59
2016-12-05T11:37:57.299Z,1020.54
2016-12-05T11:38:57.283Z,1020.57
2016-12-05T11:39:57.267Z,1020.57
2016-12-05T11:40:57.250Z,1020.58
2016-12-05T11:41:57.234Z,1020.59
2016-12-05T11:42:57.217Z,1020.58
2016-12-05T11:43:57.208Z,1020.58
2016-12-05T11:44:57.185Z,1020.57
2016-12-05T11:45:57.176Z,1020.55
2016-12-05T11:46:57.153Z,1020.56
2016-12-05T11:47:57.139Z,1020.56
2016-12-05T11:48:57.124Z,1020.52
2016-12-05T11:49:57.107Z,1020.54
2016-12-05T11:50:57.092Z,1020.54
2016-12-05T11:51:57.076Z,1020.57
2016-12-05T11:52:57.057Z,1020.52
2016-12-05T11:53:57.044Z,1020.56
2016-12-05T11:54:57.029Z,1020.5
2016-12-05T11:55:57.009Z,1020.53
2016-12-05T11:56:57.000Z,1020.51
2016-12-05T11:57:56.979Z,1020.52
2016-12-05T11:58:56.970Z,1020.48
2016-12-05T11:59:56.947Z,1020.52
2016-12-05T12:00:56.931Z,1020.45
2016-12-05T12:01:56.916Z,1020.48
2016-12-05T12:02:56.899Z,1020.49
2016-12-05T12:03:56.884Z,1020.49
2016-12-05T12:04:56.866Z,1020.47
2016-12-05T12:05:56.852Z,1020.46
2016-12-05T12:06:56.832Z,1020.46
2016-12-05T12:07:56.820Z,1020.46
2016-12-05T12:08:56.804Z,1020.46